Time;durP1;ratioP1;P1;durP2;ratioP2;P2;SDS_P1;SDS_P2;PMS_P1;PMS_P2;Temp;Humidity;BMP_temperature;BMP_pressure;BME280_temperature;BME280_humidity;BME280_pressure;Samples;Min_cycle;Max_cycle;Signal;HPM_P1;HPM_P2
2021/07/07 00:01:03;;;;;;;;;;;27.00;52.00;;;;;;5064551;28;20579;-62
2021/07/07 00:03:29;;;;;;;;;;;27.00;52.00;;;;;;5060593;28;19934;-61
2021/07/07 00:05:54;;;;;;;;;;;27.00;52.00;;;;;;5064636;28;19981;-60
2021/07/07 00:08:20;;;;;;;;;;;27.00;52.00;;;;;;5065804;28;19905;-62
2021/07/07 00:10:45;;;;;;;;;;;26.90;52.10;;;;;;5053465;28;20299;-60
2021/07/07 00:13:11;;;;;;;;;;;26.90;52.10;;;;;;5065846;28;19951;-62
2021/07/07 00:15:37;;;;;;;;;;;26.90;52.20;;;;;;5064136;28;20062;-60
2021/07/07 00:18:09;;;;;;;;;;;26.90;52.20;;;;;;5058740;28;19923;-62
2021/07/07 00:20:46;;;;;;;;;;;26.80;52.20;;;;;;5064070;28;19912;-61
2021/07/07 00:23:12;;;;;;;;;;;26.80;52.20;;;;;;5046509;28;19912;-62
2021/07/07 00:25:38;;;;;;;;;;;26.80;52.20;;;;;;5064892;28;20481;-61
2021/07/07 00:28:04;;;;;;;;;;;26.80;52.30;;;;;;5066918;28;20357;-60
2021/07/07 00:30:30;;;;;;;;;;;26.80;52.30;;;;;;5061709;28;19947;-62
2021/07/07 00:32:55;;;;;;;;;;;26.80;52.30;;;;;;5062144;28;20307;-60
2021/07/07 00:35:21;;;;;;;;;;;26.70;52.30;;;;;;5063634;28;19934;-61
2021/07/07 00:37:47;;;;;;;;;;;26.70;52.40;;;;;;5065096;28;19923;-62
2021/07/07 00:40:13;;;;;;;;;;;26.70;52.80;;;;;;5065784;28;19912;-61
2021/07/07 00:42:38;;;;;;;;;;;26.70;52.30;;;;;;5065360;28;20411;-60
2021/07/07 00:45:04;;;;;;;;;;;26.70;52.40;;;;;;5064487;28;19946;-61
2021/07/07 00:47:30;;;;;;;;;;;26.70;52.40;;;;;;5066022;28;20371;-61
2021/07/07 00:49:56;;;;;;;;;;;26.70;52.40;;;;;;5069551;28;19916;-61
2021/07/07 00:52:21;;;;;;;;;;;26.70;52.40;;;;;;5067684;28;20448;-60
2021/07/07 00:54:47;;;;;;;;;;;26.60;52.40;;;;;;5059609;28;20134;-60
2021/07/07 00:57:14;;;;;;;;;;;26.60;52.40;;;;;;5069023;28;20236;-61
2021/07/07 00:59:40;;;;;;;;;;;26.60;52.40;;;;;;5068350;28;20011;-61
2021/07/07 01:02:06;;;;;;;;;;;26.60;52.40;;;;;;5065715;28;20320;-61
2021/07/07 01:04:31;;;;;;;;;;;26.60;52.40;;;;;;5067576;28;19912;-60
2021/07/07 01:06:57;;;;;;;;;;;26.60;52.50;;;;;;5046780;28;20405;-62
2021/07/07 01:09:22;;;;;;;;;;;26.60;52.50;;;;;;5066708;28;20440;-63
2021/07/07 01:11:48;;;;;;;;;;;26.60;52.50;;;;;;5068862;28;19916;-62
2021/07/07 01:14:13;;;;;;;;;;;26.60;52.50;;;;;;5068155;28;20086;-62
2021/07/07 01:16:43;;;;;;;;;;;26.60;52.50;;;;;;5066475;28;20152;-62
2021/07/07 01:19:09;;;;;;;;;;;26.60;52.50;;;;;;5066610;28;19928;-61
2021/07/07 01:21:35;;;;;;;;;;;26.60;52.60;;;;;;5068257;28;19985;-61
2021/07/07 01:24:01;;;;;;;;;;;26.60;52.60;;;;;;5069069;28;20256;-61
2021/07/07 01:26:26;;;;;;;;;;;26.50;52.50;;;;;;5067585;28;20221;-60
2021/07/07 01:28:52;;;;;;;;;;;26.60;52.60;;;;;;5066199;28;20346;-61
2021/07/07 01:31:17;;;;;;;;;;;26.50;52.50;;;;;;5066832;28;19969;-62
2021/07/07 01:33:43;;;;;;;;;;;26.50;52.50;;;;;;5064865;28;19927;-61
2021/07/07 01:36:09;;;;;;;;;;;26.50;52.50;;;;;;5067796;28;19990;-61
2021/07/07 01:38:34;;;;;;;;;;;26.50;52.60;;;;;;5067800;28;20345;-62
2021/07/07 01:41:01;;;;;;;;;;;26.50;52.60;;;;;;5066694;28;19912;-60
2021/07/07 01:43:27;;;;;;;;;;;26.50;52.60;;;;;;5067006;28;20004;-61
2021/07/07 01:45:52;;;;;;;;;;;26.50;52.60;;;;;;5066974;28;19938;-61
2021/07/07 01:48:18;;;;;;;;;;;26.50;52.50;;;;;;5066418;28;19917;-61
2021/07/07 01:50:43;;;;;;;;;;;26.40;52.50;;;;;;5066140;28;19991;-61
2021/07/07 01:53:09;;;;;;;;;;;26.50;52.60;;;;;;5067329;28;19930;-62
2021/07/07 01:55:36;;;;;;;;;;;26.50;52.60;;;;;;5066253;28;20003;-61
2021/07/07 01:58:02;;;;;;;;;;;26.50;52.60;;;;;;5067351;28;20298;-61
2021/07/07 02:00:29;;;;;;;;;;;26.40;52.60;;;;;;5063005;28;19916;-61
2021/07/07 02:02:56;;;;;;;;;;;26.40;52.50;;;;;;5061089;28;19916;-60
2021/07/07 02:05:26;;;;;;;;;;;26.40;52.60;;;;;;5062855;28;19916;-61
2021/07/07 02:07:52;;;;;;;;;;;26.40;52.60;;;;;;5068018;28;20018;-61
2021/07/07 02:10:18;;;;;;;;;;;26.40;52.60;;;;;;5065521;28;19939;-60
2021/07/07 02:12:43;;;;;;;;;;;26.40;52.60;;;;;;5066159;28;20232;-61
2021/07/07 02:15:10;;;;;;;;;;;26.40;52.60;;;;;;5079389;28;19999;-62
2021/07/07 02:17:36;;;;;;;;;;;26.40;52.60;;;;;;5046900;28;19912;-60
2021/07/07 02:20:04;;;;;;;;;;;26.40;52.60;;;;;;5067694;28;19919;-60
2021/07/07 02:22:30;;;;;;;;;;;26.40;52.60;;;;;;5056516;28;19931;-61
2021/07/07 02:24:55;;;;;;;;;;;26.30;52.50;;;;;;5062882;28;19909;-60
2021/07/07 02:27:21;;;;;;;;;;;26.30;52.60;;;;;;5066733;28;20239;-60
2021/07/07 02:29:46;;;;;;;;;;;26.30;52.50;;;;;;5067236;28;19916;-59
2021/07/07 02:32:12;;;;;;;;;;;26.30;52.60;;;;;;5064806;28;20387;-60
2021/07/07 02:34:37;;;;;;;;;;;26.30;52.60;;;;;;5064404;28;19923;-61
2021/07/07 02:37:03;;;;;;;;;;;26.30;52.60;;;;;;5066495;28;19974;-61
2021/07/07 02:39:28;;;;;;;;;;;26.30;52.60;;;;;;5065993;28;19909;-60
2021/07/07 02:41:54;;;;;;;;;;;26.30;52.60;;;;;;5067834;28;20377;-61
2021/07/07 02:44:19;;;;;;;;;;;26.30;52.60;;;;;;5061700;28;19913;-60
2021/07/07 02:46:45;;;;;;;;;;;26.30;52.60;;;;;;5064403;28;19909;-61
2021/07/07 02:49:10;;;;;;;;;;;26.30;52.60;;;;;;5066315;28;19983;-60
2021/07/07 02:51:36;;;;;;;;;;;26.30;52.60;;;;;;5065210;28;19912;-61
2021/07/07 02:54:01;;;;;;;;;;;26.30;52.60;;;;;;5060891;28;20007;-61
2021/07/07 02:56:26;;;;;;;;;;;26.30;52.60;;;;;;5066485;28;19908;-60
2021/07/07 02:58:52;;;;;;;;;;;26.30;52.60;;;;;;5066690;28;19952;-60
2021/07/07 03:01:20;;;;;;;;;;;26.20;52.60;;;;;;5064570;28;19922;-60
2021/07/07 03:03:46;;;;;;;;;;;26.20;52.60;;;;;;5063847;28;19909;-60
2021/07/07 03:06:11;;;;;;;;;;;26.20;53.10;;;;;;5062654;28;19919;-61
2021/07/07 03:08:42;;;;;;;;;;;26.20;52.60;;;;;;5070273;28;19912;-60
2021/07/07 03:11:07;;;;;;;;;;;26.20;52.60;;;;;;5061519;28;20054;-61
2021/07/07 03:13:33;;;;;;;;;;;26.20;52.60;;;;;;5066085;28;20762;-61
2021/07/07 03:15:58;;;;;;;;;;;26.20;52.60;;;;;;5067343;28;19912;-62
2021/07/07 03:18:24;;;;;;;;;;;26.20;52.60;;;;;;5065659;28;19919;-61
2021/07/07 03:20:50;;;;;;;;;;;26.20;52.60;;;;;;5065230;28;19912;-61
2021/07/07 03:23:18;;;;;;;;;;;26.20;52.60;;;;;;5062849;28;20015;-61
2021/07/07 03:25:44;;;;;;;;;;;26.10;52.60;;;;;;5062335;28;19917;-61
2021/07/07 03:28:09;;;;;;;;;;;26.10;52.60;;;;;;5061732;28;20278;-61
2021/07/07 03:30:35;;;;;;;;;;;26.20;53.30;;;;;;5069288;28;19916;-61
2021/07/07 03:33:01;;;;;;;;;;;26.20;52.70;;;;;;5081454;28;19939;-60
2021/07/07 03:35:27;;;;;;;;;;;26.10;52.60;;;;;;5085026;28;19939;-60
2021/07/07 03:37:52;;;;;;;;;;;26.10;52.60;;;;;;5084297;28;19974;-60
2021/07/07 03:40:18;;;;;;;;;;;26.10;52.60;;;;;;5085371;28;19912;-62
2021/07/07 03:42:44;;;;;;;;;;;26.10;52.60;;;;;;5087062;28;19908;-61
2021/07/07 03:45:11;;;;;;;;;;;26.10;52.70;;;;;;5078990;28;19912;-60
2021/07/07 03:47:36;;;;;;;;;;;26.10;52.70;;;;;;5077630;28;19965;-61
2021/07/07 03:50:03;;;;;;;;;;;26.10;52.70;;;;;;5087187;28;19915;-61
2021/07/07 03:52:28;;;;;;;;;;;26.10;52.70;;;;;;5085987;28;20367;-61
2021/07/07 03:54:54;;;;;;;;;;;26.10;52.70;;;;;;5083447;28;19950;-61
2021/07/07 03:57:19;;;;;;;;;;;26.10;52.70;;;;;;5084617;28;20477;-60
2021/07/07 03:59:46;;;;;;;;;;;26.10;52.70;;;;;;5085310;28;19908;-61
2021/07/07 04:02:12;;;;;;;;;;;26.10;52.70;;;;;;5085733;28;19936;-61
2021/07/07 04:04:38;;;;;;;;;;;26.10;52.80;;;;;;5085629;28;19935;-60
2021/07/07 04:07:03;;;;;;;;;;;26.10;52.80;;;;;;5089899;28;19911;-61
2021/07/07 04:09:29;;;;;;;;;;;26.10;52.80;;;;;;5098931;28;19908;-61
2021/07/07 04:11:55;;;;;;;;;;;26.10;52.80;;;;;;5088105;28;19908;-61
2021/07/07 04:14:23;;;;;;;;;;;26.10;52.80;;;;;;5085327;28;19908;-60
2021/07/07 04:16:50;;;;;;;;;;;26.10;52.80;;;;;;5086969;28;19911;-60
2021/07/07 04:19:15;;;;;;;;;;;26.10;52.80;;;;;;5088223;28;20355;-61
2021/07/07 04:21:41;;;;;;;;;;;26.10;52.80;;;;;;5087185;28;20006;-60
2021/07/07 04:24:06;;;;;;;;;;;26.10;52.80;;;;;;5088817;28;20038;-62
2021/07/07 04:26:32;;;;;;;;;;;26.10;52.80;;;;;;5090627;28;19908;-60
2021/07/07 04:28:58;;;;;;;;;;;26.00;52.80;;;;;;5093287;28;20386;-60
2021/07/07 04:31:23;;;;;;;;;;;26.00;52.80;;;;;;5095417;28;19924;-62
2021/07/07 04:33:49;;;;;;;;;;;26.00;52.80;;;;;;5085243;28;19986;-62
2021/07/07 04:36:14;;;;;;;;;;;26.00;52.80;;;;;;5089293;28;19939;-61
2021/07/07 04:38:40;;;;;;;;;;;26.00;52.80;;;;;;5090029;28;19908;-61
2021/07/07 04:41:05;;;;;;;;;;;26.00;52.80;;;;;;5086934;28;19915;-61
2021/07/07 04:43:31;;;;;;;;;;;26.00;52.80;;;;;;5088423;28;20553;-61
2021/07/07 04:45:56;;;;;;;;;;;26.00;52.80;;;;;;5088002;28;19912;-61
2021/07/07 04:48:22;;;;;;;;;;;26.00;52.80;;;;;;5089945;28;19912;-61
2021/07/07 04:50:47;;;;;;;;;;;26.00;52.80;;;;;;5087563;28;20052;-62
2021/07/07 04:53:13;;;;;;;;;;;26.00;52.80;;;;;;5106297;28;19931;-61
2021/07/07 04:55:38;;;;;;;;;;;26.00;52.80;;;;;;5090345;28;19911;-62
2021/07/07 04:58:04;;;;;;;;;;;26.00;52.80;;;;;;5096379;28;19912;-61
2021/07/07 05:00:30;;;;;;;;;;;26.00;52.80;;;;;;5097605;28;19919;-61
2021/07/07 05:02:56;;;;;;;;;;;26.00;52.80;;;;;;5086005;28;19908;-61
2021/07/07 05:05:21;;;;;;;;;;;26.00;52.90;;;;;;5086745;28;20436;-61
2021/07/07 05:07:47;;;;;;;;;;;25.90;52.80;;;;;;5091188;28;19911;-61
2021/07/07 05:10:14;;;;;;;;;;;25.90;52.80;;;;;;5083939;28;19916;-61
2021/07/07 05:12:40;;;;;;;;;;;26.00;52.80;;;;;;5088901;28;20050;-60
2021/07/07 05:15:06;;;;;;;;;;;25.90;52.80;;;;;;5088980;28;20329;-60
2021/07/07 05:17:31;;;;;;;;;;;25.90;52.80;;;;;;5084731;28;20003;-61
2021/07/07 05:19:58;;;;;;;;;;;25.90;52.80;;;;;;5084344;28;20015;-60
2021/07/07 05:22:23;;;;;;;;;;;25.90;53.00;;;;;;5071517;28;19916;-61
2021/07/07 05:24:49;;;;;;;;;;;26.00;52.90;;;;;;5098806;28;19911;-60
2021/07/07 05:27:15;;;;;;;;;;;26.00;53.00;;;;;;5104197;28;20422;-61
2021/07/07 05:29:40;;;;;;;;;;;26.00;52.90;;;;;;5086260;28;19916;-61
2021/07/07 05:32:06;;;;;;;;;;;26.00;53.00;;;;;;5085557;28;19915;-61
2021/07/07 05:34:32;;;;;;;;;;;26.10;52.90;;;;;;5084314;28;20454;-61
2021/07/07 05:36:57;;;;;;;;;;;26.10;52.80;;;;;;5079501;28;19915;-60
2021/07/07 05:39:23;;;;;;;;;;;26.10;52.70;;;;;;5087883;28;19976;-60
2021/07/07 05:41:48;;;;;;;;;;;26.10;52.60;;;;;;5088389;28;19912;-60
2021/07/07 05:44:14;;;;;;;;;;;26.10;52.50;;;;;;5088149;28;20003;-60
2021/07/07 05:46:39;;;;;;;;;;;26.10;52.50;;;;;;5087469;28;20235;-61
2021/07/07 05:49:05;;;;;;;;;;;26.10;52.40;;;;;;5085952;28;19915;-60
2021/07/07 05:51:30;;;;;;;;;;;26.20;52.40;;;;;;5087955;28;19939;-60
2021/07/07 05:53:56;;;;;;;;;;;26.20;52.40;;;;;;5084683;28;19919;-61
2021/07/07 05:56:22;;;;;;;;;;;26.20;52.30;;;;;;5085276;28;20281;-61
2021/07/07 05:58:47;;;;;;;;;;;26.20;52.80;;;;;;5092392;28;19951;-61
2021/07/07 06:01:13;;;;;;;;;;;26.30;52.30;;;;;;5086070;28;19920;-60
2021/07/07 06:03:39;;;;;;;;;;;26.30;52.30;;;;;;5087363;28;19912;-61
2021/07/07 06:06:05;;;;;;;;;;;26.30;52.20;;;;;;5087698;28;19960;-60
2021/07/07 06:08:30;;;;;;;;;;;26.30;52.20;;;;;;5085999;28;19980;-61
2021/07/07 06:10:56;;;;;;;;;;;26.30;52.20;;;;;;5083713;28;19923;-61
2021/07/07 06:13:21;;;;;;;;;;;26.40;52.20;;;;;;5084981;28;19974;-61
2021/07/07 06:15:47;;;;;;;;;;;26.40;52.20;;;;;;5088483;28;19969;-60
2021/07/07 06:18:12;;;;;;;;;;;26.40;52.10;;;;;;5088318;28;20589;-61
2021/07/07 06:20:38;;;;;;;;;;;26.40;52.10;;;;;;5097900;28;19960;-62
2021/07/07 06:23:04;;;;;;;;;;;26.40;52.10;;;;;;5088516;28;20006;-61
2021/07/07 06:25:30;;;;;;;;;;;26.40;52.20;;;;;;5091662;28;20355;-61
2021/07/07 06:27:55;;;;;;;;;;;26.40;52.20;;;;;;5088383;28;19912;-59
2021/07/07 06:30:25;;;;;;;;;;;26.40;52.30;;;;;;5088237;28;19995;-62
2021/07/07 06:32:51;;;;;;;;;;;26.40;52.30;;;;;;5085814;28;19919;-61
2021/07/07 06:35:16;;;;;;;;;;;26.50;52.40;;;;;;5091578;28;19908;-60
2021/07/07 06:37:42;;;;;;;;;;;26.50;52.50;;;;;;5086781;28;20067;-61
2021/07/07 06:40:08;;;;;;;;;;;26.50;52.50;;;;;;5089308;28;20006;-61
2021/07/07 06:42:34;;;;;;;;;;;26.50;52.50;;;;;;5085728;28;20374;-62
2021/07/07 06:45:00;;;;;;;;;;;26.40;52.50;;;;;;5085870;28;20642;-61
2021/07/07 06:47:26;;;;;;;;;;;26.50;52.60;;;;;;5086890;28;19923;-62
2021/07/07 06:49:52;;;;;;;;;;;26.50;52.60;;;;;;5087602;28;20007;-61
2021/07/07 06:52:19;;;;;;;;;;;26.50;52.60;;;;;;5086021;28;19919;-60
2021/07/07 06:54:46;;;;;;;;;;;26.50;52.60;;;;;;5086980;28;20285;-61
2021/07/07 06:57:11;;;;;;;;;;;26.50;52.60;;;;;;5087826;28;19919;-62
2021/07/07 06:59:37;;;;;;;;;;;26.50;52.60;;;;;;5087864;28;19912;-60
2021/07/07 07:02:04;;;;;;;;;;;26.50;52.60;;;;;;5086879;28;19920;-61
2021/07/07 07:04:30;;;;;;;;;;;26.50;52.50;;;;;;5084695;28;19912;-61
2021/07/07 07:06:57;;;;;;;;;;;26.50;52.50;;;;;;5087079;28;19908;-60
2021/07/07 07:09:23;;;;;;;;;;;26.50;52.50;;;;;;5087252;28;19993;-60
2021/07/07 07:11:48;;;;;;;;;;;26.50;52.50;;;;;;5085851;28;19947;-61
2021/07/07 07:14:14;;;;;;;;;;;26.40;52.40;;;;;;5083595;28;19916;-62
2021/07/07 07:16:41;;;;;;;;;;;26.40;52.40;;;;;;5076708;28;19908;-61
2021/07/07 07:19:06;;;;;;;;;;;26.40;52.50;;;;;;5087250;28;19931;-60
2021/07/07 07:21:32;;;;;;;;;;;26.50;53.10;;;;;;5087185;28;20362;-60
2021/07/07 07:23:57;;;;;;;;;;;26.40;52.60;;;;;;5087384;28;19934;-60
2021/07/07 07:26:23;;;;;;;;;;;26.50;52.50;;;;;;5088646;28;19912;-60
2021/07/07 07:28:49;;;;;;;;;;;26.50;52.50;;;;;;5103956;28;20070;-60
2021/07/07 07:31:14;;;;;;;;;;;26.50;52.70;;;;;;5086331;28;19919;-61
2021/07/07 07:33:40;;;;;;;;;;;26.50;52.70;;;;;;5086864;28;20255;-61
2021/07/07 07:36:06;;;;;;;;;;;26.50;52.40;;;;;;5095150;28;19912;-60
2021/07/07 07:38:38;;;;;;;;;;;26.50;52.50;;;;;;5090077;28;19916;-60
2021/07/07 07:41:03;;;;;;;;;;;26.50;52.70;;;;;;5086752;28;19957;-60
2021/07/07 07:43:29;;;;;;;;;;;26.50;52.50;;;;;;5086695;28;19912;-61
2021/07/07 07:45:55;;;;;;;;;;;26.50;52.40;;;;;;5078325;28;20011;-61
2021/07/07 07:48:21;;;;;;;;;;;26.50;52.50;;;;;;5085199;28;19912;-60
2021/07/07 07:50:46;;;;;;;;;;;26.50;52.40;;;;;;5089089;28;20254;-61
2021/07/07 07:53:12;;;;;;;;;;;26.50;52.40;;;;;;5081696;28;19935;-61
2021/07/07 07:55:37;;;;;;;;;;;26.50;52.40;;;;;;5086360;28;19908;-60
2021/07/07 07:58:03;;;;;;;;;;;26.50;52.40;;;;;;5084127;28;19951;-61
2021/07/07 08:00:29;;;;;;;;;;;26.50;52.50;;;;;;5084550;28;19915;-61
2021/07/07 08:02:57;;;;;;;;;;;26.50;52.60;;;;;;5080452;28;19922;-62
2021/07/07 08:05:23;;;;;;;;;;;26.50;52.60;;;;;;5085805;28;20001;-61
2021/07/07 08:07:48;;;;;;;;;;;26.50;52.90;;;;;;5085023;28;19916;-61
2021/07/07 08:10:15;;;;;;;;;;;26.50;52.60;;;;;;5084581;28;19966;-62
2021/07/07 08:12:41;;;;;;;;;;;26.50;52.60;;;;;;5086681;28;19951;-60
2021/07/07 08:15:06;;;;;;;;;;;26.50;52.60;;;;;;5085530;28;19962;-60
2021/07/07 08:17:32;;;;;;;;;;;26.50;52.80;;;;;;5092071;28;19915;-60
2021/07/07 08:19:58;;;;;;;;;;;26.50;52.80;;;;;;5096257;28;19908;-60
2021/07/07 08:22:24;;;;;;;;;;;26.50;52.60;;;;;;5086584;28;19912;-61
2021/07/07 08:24:51;;;;;;;;;;;26.50;52.80;;;;;;5085701;28;19995;-61
2021/07/07 08:27:16;;;;;;;;;;;26.50;52.70;;;;;;5084951;28;20373;-60
2021/07/07 08:29:42;;;;;;;;;;;26.50;52.80;;;;;;5092245;28;19919;-61
2021/07/07 08:32:07;;;;;;;;;;;26.50;53.40;;;;;;5085263;28;19962;-62
2021/07/07 08:34:33;;;;;;;;;;;26.50;52.80;;;;;;5084392;28;19916;-61
2021/07/07 08:36:59;;;;;;;;;;;26.50;52.70;;;;;;5086790;28;19912;-62
2021/07/07 08:39:26;;;;;;;;;;;26.50;53.30;;;;;;5086114;28;20017;-60
2021/07/07 08:41:51;;;;;;;;;;;26.60;52.60;;;;;;5075272;28;19908;-61
2021/07/07 08:44:17;;;;;;;;;;;26.50;52.70;;;;;;5099371;28;20266;-61
2021/07/07 08:46:42;;;;;;;;;;;26.60;52.90;;;;;;5089597;28;20613;-61
2021/07/07 08:49:08;;;;;;;;;;;26.60;52.90;;;;;;5091500;28;20274;-61
2021/07/07 08:51:39;;;;;;;;;;;26.60;52.90;;;;;;5085508;28;20665;-60
2021/07/07 08:54:05;;;;;;;;;;;26.60;52.80;;;;;;5085166;28;19912;-62
2021/07/07 08:56:30;;;;;;;;;;;26.60;52.80;;;;;;5085502;28;19967;-60
2021/07/07 08:58:56;;;;;;;;;;;26.60;52.80;;;;;;5092810;28;20010;-60
2021/07/07 09:01:21;;;;;;;;;;;26.60;52.80;;;;;;5092612;28;20018;-60
2021/07/07 09:03:47;;;;;;;;;;;26.60;52.60;;;;;;5085534;28;19907;-61
2021/07/07 09:06:12;;;;;;;;;;;26.60;52.90;;;;;;5086474;28;19999;-61
2021/07/07 09:08:39;;;;;;;;;;;26.60;53.00;;;;;;5091071;28;19916;-60
2021/07/07 09:11:18;;;;;;;;;;;26.60;52.60;;;;;;5093127;28;19924;-61
2021/07/07 09:13:45;;;;;;;;;;;26.60;52.80;;;;;;5087675;28;20297;-62
2021/07/07 09:16:11;;;;;;;;;;;26.60;52.60;;;;;;5089372;28;19912;-60
2021/07/07 09:18:37;;;;;;;;;;;26.60;52.60;;;;;;5101352;28;19986;-60
2021/07/07 09:21:03;;;;;;;;;;;26.60;52.60;;;;;;5099814;28;19924;-60
2021/07/07 09:23:29;;;;;;;;;;;26.60;53.10;;;;;;5090224;28;19962;-61
2021/07/07 09:25:58;;;;;;;;;;;26.60;52.80;;;;;;5089344;28;19958;-60
2021/07/07 09:28:30;;;;;;;;;;;26.60;53.60;;;;;;5084403;28;19930;-60
2021/07/07 09:31:01;;;;;;;;;;;26.60;52.90;;;;;;5103542;28;19920;-61
2021/07/07 09:33:27;;;;;;;;;;;26.60;52.70;;;;;;5093972;28;19912;-60
2021/07/07 09:36:12;;;;;;;;;;;26.60;53.40;;;;;;5089097;28;19916;-61
2021/07/07 09:38:42;;;;;;;;;;;26.50;53.00;;;;;;5088371;28;19951;-60
2021/07/07 09:41:11;;;;;;;;;;;26.60;52.80;;;;;;5088823;28;19991;-60
2021/07/07 09:43:44;;;;;;;;;;;26.60;52.90;;;;;;5088962;28;19915;-60
2021/07/07 09:46:09;;;;;;;;;;;26.60;52.80;;;;;;5094219;28;20694;-62
2021/07/07 09:48:38;;;;;;;;;;;26.60;53.30;;;;;;5089214;28;19908;-62
2021/07/07 09:51:03;;;;;;;;;;;26.60;52.80;;;;;;5089182;28;19923;-61
2021/07/07 09:53:29;;;;;;;;;;;26.60;53.10;;;;;;5088112;28;20727;-60
2021/07/07 09:55:55;;;;;;;;;;;26.60;52.70;;;;;;5088547;28;19915;-61
2021/07/07 09:58:22;;;;;;;;;;;26.70;52.60;;;;;;5089876;28;19916;-61
2021/07/07 10:00:47;;;;;;;;;;;26.70;52.50;;;;;;5094198;28;20552;-61
2021/07/07 10:03:12;;;;;;;;;;;26.70;52.60;;;;;;5086598;28;19965;-61
2021/07/07 10:05:40;;;;;;;;;;;26.70;52.90;;;;;;5088023;28;19912;-61
2021/07/07 10:08:06;;;;;;;;;;;26.70;52.70;;;;;;5089281;28;19912;-60
2021/07/07 10:10:32;;;;;;;;;;;26.70;53.00;;;;;;5086882;28;20381;-62
2021/07/07 10:12:58;;;;;;;;;;;26.70;52.80;;;;;;5088224;28;20057;-60
2021/07/07 10:15:26;;;;;;;;;;;26.70;52.50;;;;;;5090154;28;20346;-61
2021/07/07 10:17:51;;;;;;;;;;;26.70;52.40;;;;;;5086098;28;19916;-61
2021/07/07 10:20:17;;;;;;;;;;;26.70;52.30;;;;;;5087883;28;20440;-60
2021/07/07 10:22:43;;;;;;;;;;;26.70;52.20;;;;;;5094126;28;20264;-60
2021/07/07 10:25:11;;;;;;;;;;;26.70;52.30;;;;;;5091354;28;19990;-60
2021/07/07 10:27:37;;;;;;;;;;;26.70;52.20;;;;;;5092198;28;20059;-61
2021/07/07 10:30:03;;;;;;;;;;;26.80;52.20;;;;;;5080338;28;20002;-60
2021/07/07 10:32:29;;;;;;;;;;;26.80;52.20;;;;;;5063801;28;19976;-61
2021/07/07 10:35:02;;;;;;;;;;;26.80;52.10;;;;;;5085589;28;19947;-62
2021/07/07 10:37:27;;;;;;;;;;;26.80;52.10;;;;;;5083396;28;19968;-61
2021/07/07 10:40:13;;;;;;;;;;;26.80;52.00;;;;;;5084468;28;20585;-61
2021/07/07 10:42:43;;;;;;;;;;;26.80;52.50;;;;;;5082900;28;19931;-61
2021/07/07 10:45:09;;;;;;;;;;;26.80;52.00;;;;;;5081800;28;19908;-60
2021/07/07 10:47:36;;;;;;;;;;;26.80;52.00;;;;;;5082350;28;19931;-62
2021/07/07 10:50:03;;;;;;;;;;;26.80;52.00;;;;;;5084527;28;20003;-61
2021/07/07 10:52:43;;;;;;;;;;;26.80;52.00;;;;;;5086723;28;19912;-60
2021/07/07 10:55:10;;;;;;;;;;;26.80;52.00;;;;;;5090087;28;19916;-59
2021/07/07 10:57:36;;;;;;;;;;;26.80;52.00;;;;;;5082732;28;19969;-60
2021/07/07 11:00:08;;;;;;;;;;;26.80;51.90;;;;;;5086837;28;20324;-61
2021/07/07 11:02:34;;;;;;;;;;;26.90;52.00;;;;;;5089710;28;20018;-60
2021/07/07 11:05:04;;;;;;;;;;;26.90;51.90;;;;;;5088069;28;20022;-61
2021/07/07 11:07:37;;;;;;;;;;;26.90;52.00;;;;;;5079450;28;19919;-60
2021/07/07 11:10:03;;;;;;;;;;;26.90;51.90;;;;;;5085524;28;19908;-59
2021/07/07 11:12:34;;;;;;;;;;;26.90;51.80;;;;;;5080643;28;19908;-59
2021/07/07 11:15:16;;;;;;;;;;;26.90;51.80;;;;;;5080616;28;19920;-58
2021/07/07 11:17:44;;;;;;;;;;;26.90;51.80;;;;;;5087050;28;19961;-60
2021/07/07 11:20:14;;;;;;;;;;;26.90;51.70;;;;;;5086603;28;20286;-62
2021/07/07 11:22:41;;;;;;;;;;;26.90;51.70;;;;;;5087614;28;19974;-60
2021/07/07 11:25:07;;;;;;;;;;;27.00;51.80;;;;;;5087182;28;19908;-60
2021/07/07 11:27:33;;;;;;;;;;;27.00;51.80;;;;;;5086088;28;19908;-60
2021/07/07 11:30:00;;;;;;;;;;;27.00;51.80;;;;;;5086610;28;20006;-60
2021/07/07 11:32:25;;;;;;;;;;;27.00;51.80;;;;;;5081441;28;21595;-60
2021/07/07 11:34:52;;;;;;;;;;;27.00;51.80;;;;;;5085939;28;19912;-60
2021/07/07 11:37:19;;;;;;;;;;;27.00;51.70;;;;;;5082900;28;19998;-60
2021/07/07 11:39:45;;;;;;;;;;;27.10;51.80;;;;;;5088869;28;19943;-62
2021/07/07 11:42:10;;;;;;;;;;;27.00;51.60;;;;;;5087995;28;20003;-60
2021/07/07 11:44:43;;;;;;;;;;;27.10;51.80;;;;;;5086343;28;19939;-60
2021/07/07 11:47:09;;;;;;;;;;;27.10;51.80;;;;;;5084030;28;20345;-60
2021/07/07 11:49:35;;;;;;;;;;;27.10;51.70;;;;;;5079856;28;20324;-60
2021/07/07 11:52:04;;;;;;;;;;;27.10;51.80;;;;;;5084831;28;19995;-61
2021/07/07 11:54:46;;;;;;;;;;;27.10;51.80;;;;;;5086321;28;20375;-63
2021/07/07 11:57:12;;;;;;;;;;;27.20;51.80;;;;;;5086345;28;19960;-61
2021/07/07 11:59:38;;;;;;;;;;;27.10;51.90;;;;;;5085798;28;19966;-60
2021/07/07 12:02:03;;;;;;;;;;;27.20;51.90;;;;;;5089562;28;20298;-61
2021/07/07 12:04:28;;;;;;;;;;;27.20;51.80;;;;;;5084634;28;19973;-61
2021/07/07 12:06:56;;;;;;;;;;;27.20;51.80;;;;;;5092022;28;19912;-60
2021/07/07 12:09:22;;;;;;;;;;;27.20;51.80;;;;;;5099318;28;20002;-59
2021/07/07 12:11:58;;;;;;;;;;;27.20;51.80;;;;;;5087158;28;20296;-60
2021/07/07 12:14:27;;;;;;;;;;;27.20;51.80;;;;;;5093826;28;19915;-59
2021/07/07 12:16:53;;;;;;;;;;;27.20;51.80;;;;;;5075390;28;19912;-61
2021/07/07 12:19:18;;;;;;;;;;;27.20;51.80;;;;;;5091893;28;20062;-61
2021/07/07 12:21:48;;;;;;;;;;;27.20;51.80;;;;;;5088400;28;20010;-59
2021/07/07 12:24:17;;;;;;;;;;;27.30;51.80;;;;;;5086074;28;19918;-59
2021/07/07 12:26:44;;;;;;;;;;;27.30;51.80;;;;;;5090685;28;19981;-59
2021/07/07 12:29:11;;;;;;;;;;;27.30;51.80;;;;;;5089891;28;19989;-59
2021/07/07 12:31:38;;;;;;;;;;;27.30;51.80;;;;;;5098095;28;19918;-62
2021/07/07 12:34:05;;;;;;;;;;;27.30;51.80;;;;;;5092138;28;19912;-60
2021/07/07 12:36:32;;;;;;;;;;;27.30;51.90;;;;;;5087381;28;20393;-60
2021/07/07 12:38:59;;;;;;;;;;;27.30;51.80;;;;;;5085053;28;19923;-59
2021/07/07 12:41:31;;;;;;;;;;;27.30;51.80;;;;;;5086160;28;19915;-62
2021/07/07 12:44:12;;;;;;;;;;;27.30;51.80;;;;;;5103734;28;19908;-61
2021/07/07 12:46:53;;;;;;;;;;;27.30;52.00;;;;;;5086960;28;20405;-62
2021/07/07 12:49:22;;;;;;;;;;;27.40;52.10;;;;;;5097419;28;19919;-60
2021/07/07 12:51:49;;;;;;;;;;;27.40;52.00;;;;;;5078035;28;19912;-57
2021/07/07 12:54:18;;;;;;;;;;;27.30;51.80;;;;;;5091540;28;20034;-60
2021/07/07 12:56:54;;;;;;;;;;;27.30;51.80;;;;;;5096934;28;20030;-60
2021/07/07 12:59:19;;;;;;;;;;;27.30;51.70;;;;;;5086950;28;19916;-61
2021/07/07 13:01:45;;;;;;;;;;;27.30;51.50;;;;;;5093670;28;19916;-62
2021/07/07 13:04:20;;;;;;;;;;;27.30;51.50;;;;;;5089273;28;20021;-61
2021/07/07 13:06:46;;;;;;;;;;;27.30;51.40;;;;;;5074898;28;19962;-60
2021/07/07 13:09:11;;;;;;;;;;;27.30;51.30;;;;;;5094849;28;20009;-60
2021/07/07 13:11:37;;;;;;;;;;;27.30;51.30;;;;;;5091003;28;20437;-60
2021/07/07 13:14:11;;;;;;;;;;;27.20;51.20;;;;;;5089800;28;20003;-62
2021/07/07 13:16:36;;;;;;;;;;;27.20;51.10;;;;;;5090140;28;19915;-61
2021/07/07 13:19:09;;;;;;;;;;;27.20;51.00;;;;;;5098649;28;20358;-60
2021/07/07 13:21:47;;;;;;;;;;;27.30;50.90;;;;;;5092929;28;20386;-61
2021/07/07 13:24:18;;;;;;;;;;;27.20;50.80;;;;;;5090446;28;19918;-61
2021/07/07 13:26:46;;;;;;;;;;;27.20;51.00;;;;;;5090400;28;20041;-60
2021/07/07 13:29:20;;;;;;;;;;;27.20;50.70;;;;;;5090819;28;19908;-60
2021/07/07 13:32:05;;;;;;;;;;;27.20;50.60;;;;;;5089657;28;19942;-60
2021/07/07 13:34:31;;;;;;;;;;;27.30;50.60;;;;;;5092906;28;21956;-62
2021/07/07 13:36:57;;;;;;;;;;;27.20;50.60;;;;;;5093328;28;19990;-59
2021/07/07 13:39:23;;;;;;;;;;;27.30;50.60;;;;;;5086276;28;20317;-62
2021/07/07 13:41:48;;;;;;;;;;;27.30;50.70;;;;;;5085220;28;19995;-60
2021/07/07 13:44:14;;;;;;;;;;;27.30;50.70;;;;;;5090933;28;19915;-61
2021/07/07 13:46:39;;;;;;;;;;;27.30;50.70;;;;;;5085632;28;20043;-60
2021/07/07 13:49:05;;;;;;;;;;;27.30;50.70;;;;;;5081760;28;19990;-60
2021/07/07 13:51:31;;;;;;;;;;;27.30;50.70;;;;;;5084821;28;20268;-61
2021/07/07 13:53:56;;;;;;;;;;;27.30;50.80;;;;;;5071179;28;19919;-60
2021/07/07 13:56:22;;;;;;;;;;;27.30;50.90;;;;;;5063728;28;19912;-61
2021/07/07 13:58:47;;;;;;;;;;;27.30;50.80;;;;;;5064939;28;20016;-59
2021/07/07 14:01:13;;;;;;;;;;;27.30;50.90;;;;;;5082146;28;20371;-63
2021/07/07 14:03:39;;;;;;;;;;;27.30;50.90;;;;;;5082020;28;19912;-60
2021/07/07 14:06:04;;;;;;;;;;;27.30;51.10;;;;;;5063756;28;19927;-60
2021/07/07 14:08:30;;;;;;;;;;;27.30;51.10;;;;;;5083068;28;19985;-62
2021/07/07 14:10:56;;;;;;;;;;;27.20;51.00;;;;;;5080324;28;19912;-61
2021/07/07 14:13:21;;;;;;;;;;;27.20;51.10;;;;;;5080612;28;19977;-63